Calgary, Alberta

6:10 PM MDT on September 02, 2014 (GMT -0600)
Calgary International | Change Station
CLOSE
Current Station
Airport
Location: Calgary,
Elevation: 3556 ft
Nearby Weather Stations

Elev 3556 ft 51.11 °N, 114.02 °W | Updated 2 hours ago

Light Rain
Light Rain
55 °F
Feels Like 55 °F
N
4
Wind Variable Wind from SSW

Tomorrow is forecast to be nearly the same temperature as today.

Today
High -- | Low -- °F
--% Chance of Precip.
Yesterday
High -- | Low -- °F
Precip. -- in
6:51 AM 8:19 PM
First Quarter, 56% visible
Pressure 29.80 in
Visibility 30.0 miles
Clouds Mostly Cloudy 5400 ft
Overcast 6000 ft
Dew Point 39 °F
Humidity 54%
Rainfall 0.00 in
Snow Depth Not available.
UV 1 out of 12
Pollen Not available.
Air Quality Not available.
Flu Activity Not available.
METAR CYYC 022200Z 21003KT 190V260 30SM -RA BKN054 OVC060 13/04 A2976 RMK SC6SC2 PCPN VRY LGT SLP091 DENSITY ALT 4300FT

More Conditions Fewer Conditions

Pressure 29.80 in
Visibility 30.0 miles
Clouds Mostly Cloudy 5400 ft
Overcast 6000 ft
Dew Point 39 °F
Humidity 54%
Rainfall 0.00 in
Snow Depth Not available.
UV 1 out of 12
Pollen Not available.
Air Quality Not available.
Flu Activity Not available.
METAR CYYC 022200Z 21003KT 190V260 30SM -RA BKN054 OVC060 13/04 A2976 RMK SC6SC2 PCPN VRY LGT SLP091 DENSITY ALT 4300FT

More Conditions Fewer Conditions

10-Day Weather Forecast

Almanac

Astronomy

Sep. 02, 2014 Rise Set
Actual Time 6:51 AM MDT 8:19 PM MDT
Civil Twilight 6:16 AM MDT 8:53 PM MDT
Nautical Twilight 5:34 AM MDT 9:35 PM MDT
Astronomical Twilight 4:48 AM MDT 10:21 PM MDT
Moon 3:27 PM MDT (9/2) No Moon Set
Length of Visible Light 14h 36m
Length of Day
13h 28m
Tomorrow will be 3m 46s shorter.
First Quarter, 56% of the Moon is Illuminated
Today
First Quarter
Sep 8
Full
Sep 15
Last Quarter
Sep 24
New
Oct 1
First Quarter

Today's Extremes

Country Highs Country Lows

Community

WunderPhotos

Upload Photos

1,749,807 photos uploaded!

Nearby

Snow Depth

Not available.

Earthquake Activity

City Distance Mag. Time & Date
No recent earthquake activity has been reported nearby.
Minimum magnitude displayed is 2.5.

Coastal Water Temperatures

Place Temperature
No Stations Reporting

Nearby Weather Stations